Time;durP1;ratioP1;P1;durP2;ratioP2;P2;SDS_P1;SDS_P2;PMS_P1;PMS_P2;Temp;Humidity;BMP_temperature;BMP_pressure;BME280_temperature;BME280_humidity;BME280_pressure;Samples;Min_cycle;Max_cycle;Signal;HPM_P1;HPM_P2
2022/03/27 00:02:22;;;;;;;23.00;13.93;;;;;;;8.37;100.00;99855.89;1664870;86;21110;-62
2022/03/27 00:04:50;;;;;;;24.75;13.98;;;;;;;8.38;100.00;99857.53;1668374;86;20992;-62
2022/03/27 00:07:17;;;;;;;24.80;14.18;;;;;;;8.35;100.00;99865.39;1664708;86;21059;-62
2022/03/27 00:09:44;;;;;;;24.90;14.07;;;;;;;8.30;100.00;99861.36;1660605;86;21043;-62
2022/03/27 00:12:12;;;;;;;24.92;14.45;;;;;;;8.26;100.00;99861.12;1668482;86;20976;-62
2022/03/27 00:14:39;;;;;;;23.98;14.43;;;;;;;8.26;100.00;99865.78;1664814;86;21551;-62
2022/03/27 00:17:07;;;;;;;23.27;14.30;;;;;;;8.15;100.00;99859.87;1668609;86;20980;-62
2022/03/27 00:19:37;;;;;;;25.15;14.63;;;;;;;8.11;100.00;99862.19;1668195;86;21536;-62
2022/03/27 00:22:05;;;;;;;23.87;13.43;;;;;;;8.07;100.00;99855.53;1668098;86;21039;-62
2022/03/27 00:24:33;;;;;;;22.70;13.70;;;;;;;8.02;100.00;99860.02;1663841;86;21070;-62
2022/03/27 00:27:01;;;;;;;24.10;14.38;;;;;;;7.97;100.00;99854.27;1666828;86;21043;-62
2022/03/27 00:29:30;;;;;;;23.12;13.28;;;;;;;7.97;100.00;99856.37;1660477;86;20964;-62
2022/03/27 00:31:58;;;;;;;25.85;14.28;;;;;;;7.96;100.00;99861.11;1668445;86;20984;-62
2022/03/27 00:34:27;;;;;;;25.50;13.88;;;;;;;7.94;100.00;99856.50;1668548;86;21093;-62
2022/03/27 00:36:55;;;;;;;22.13;13.75;;;;;;;7.91;100.00;99861.77;1664597;86;21019;-62
2022/03/27 00:39:22;;;;;;;24.63;14.35;;;;;;;7.91;100.00;99867.35;1668526;86;21585;-62
2022/03/27 00:41:51;;;;;;;23.18;13.78;;;;;;;7.86;100.00;99864.14;1658593;86;21075;-62
2022/03/27 00:44:20;;;;;;;23.12;13.62;;;;;;;7.84;100.00;99852.67;1703052;84;21020;-63
2022/03/27 00:46:48;;;;;;;23.05;14.45;;;;;;;7.83;100.00;99856.14;1702790;84;20981;-62
2022/03/27 00:49:15;;;;;;;22.13;14.15;;;;;;;7.86;100.00;99862.86;1701723;84;21038;-62
2022/03/27 00:51:43;;;;;;;8.35;3.80;;;;;;;7.95;100.00;99944.48;1701636;84;21087;-62
2022/03/27 00:54:10;;;;;;;4.65;1.62;;;;;;;6.94;100.00;100024.86;1669412;86;21067;-63
2022/03/27 00:56:38;;;;;;;4.65;1.52;;;;;;;5.93;100.00;100010.83;1704697;83;21032;-63
2022/03/27 00:59:07;;;;;;;2.17;1.30;;;;;;;5.57;100.00;100028.98;1708824;83;21055;-63
2022/03/27 01:01:39;;;;;;;2.77;1.50;;;;;;;5.33;100.00;100078.23;1704310;83;21017;-63
2022/03/27 01:04:09;;;;;;;4.22;1.60;;;;;;;5.13;100.00;100079.67;1696024;84;20999;-62
2022/03/27 01:06:43;;;;;;;3.08;1.17;;;;;;;4.89;100.00;100074.81;1703477;84;21042;-63
2022/03/27 01:09:38;;;;;;;5.95;1.85;;;;;;;4.76;100.00;100078.11;1700670;84;20998;-63
2022/03/27 01:12:24;;;;;;;3.33;1.47;;;;;;;4.69;100.00;100084.72;1663738;86;21033;-63
2022/03/27 01:14:54;;;;;;;3.65;1.20;;;;;;;4.64;100.00;100093.74;1691769;84;21060;-63
2022/03/27 01:17:26;;;;;;;3.35;1.10;;;;;;;4.51;100.00;100100.88;1696255;84;21030;-63
2022/03/27 01:19:56;;;;;;;1.07;1.00;;;;;;;4.41;100.00;100104.54;1691687;84;21011;-63
2022/03/27 01:22:26;;;;;;;2.52;1.05;;;;;;;4.20;100.00;100128.40;1690952;84;21030;-64
2022/03/27 01:24:53;;;;;;;1.65;0.85;;;;;;;3.87;100.00;100132.99;1696868;84;21010;-64
2022/03/27 01:27:21;;;;;;;2.02;0.80;;;;;;;3.54;100.00;100137.95;1688262;85;21063;-64
2022/03/27 01:29:48;;;;;;;1.45;0.85;;;;;;;3.15;100.00;100118.83;1696251;84;21023;-65
2022/03/27 01:32:16;;;;;;;2.25;0.90;;;;;;;2.86;100.00;100120.23;1696869;84;21044;-64
2022/03/27 01:34:47;;;;;;;2.12;1.07;;;;;;;2.69;100.00;100118.41;1693007;84;21555;-64
2022/03/27 01:37:15;;;;;;;2.47;1.10;;;;;;;2.73;100.00;100112.41;1692131;84;21054;-64
2022/03/27 01:39:43;;;;;;;1.77;1.20;;;;;;;2.79;100.00;100112.30;1691944;84;21078;-64
2022/03/27 01:42:10;;;;;;;1.47;1.00;;;;;;;2.84;100.00;100091.45;1680527;84;21566;-64
2022/03/27 01:44:38;;;;;;;2.30;1.30;;;;;;;2.86;100.00;100096.48;1668966;85;21048;-64
2022/03/27 01:47:05;;;;;;;4.53;1.22;;;;;;;2.93;100.00;100101.44;1648759;86;21064;-64
2022/03/27 01:49:33;;;;;;;3.27;1.40;;;;;;;2.98;100.00;100111.51;1648851;86;21025;-65
2022/03/27 01:52:00;;;;;;;3.85;1.60;;;;;;;3.07;100.00;100110.07;1649621;86;21033;-64
2022/03/27 01:54:27;;;;;;;3.80;1.60;;;;;;;3.18;100.00;100119.61;1639199;86;21085;-65
2022/03/27 01:56:54;;;;;;;8.70;3.90;;;;;;;3.19;100.00;100131.45;1667947;85;21058;-63
2022/03/27 01:59:22;;;;;;;13.43;6.50;;;;;;;3.16;100.00;100137.88;1648971;87;21028;-62
2022/03/27 02:01:50;;;;;;;14.65;7.17;;;;;;;3.24;100.00;100131.78;1647424;87;21064;-62
2022/03/27 02:04:18;;;;;;;10.65;4.97;;;;;;;3.25;100.00;100114.40;1649056;87;21040;-62
2022/03/27 02:06:46;;;;;;;10.25;4.50;;;;;;;3.33;100.00;100112.09;1648952;87;21052;-62
2022/03/27 02:09:15;;;;;;;4.95;2.70;;;;;;;3.34;100.00;100115.02;1648918;87;21659;-62
2022/03/27 02:11:43;;;;;;;3.90;2.90;;;;;;;3.35;100.00;100119.26;1648862;87;21052;-63
2022/03/27 02:14:11;;;;;;;3.62;2.50;;;;;;;3.24;100.00;100127.97;1645770;87;21013;-61
2022/03/27 02:16:40;;;;;;;3.20;2.00;;;;;;;3.32;100.00;100138.83;1648872;87;21544;-62
2022/03/27 02:19:10;;;;;;;5.37;1.90;;;;;;;3.32;100.00;100136.28;1648838;87;21051;-62
2022/03/27 02:21:40;;;;;;;5.83;2.75;;;;;;;3.25;100.00;100130.49;1649105;87;21056;-63
2022/03/27 02:24:08;;;;;;;7.00;2.75;;;;;;;3.29;100.00;100137.19;1648965;87;21122;-62
2022/03/27 02:26:39;;;;;;;3.58;1.98;;;;;;;3.25;100.00;100142.38;1648945;87;21028;-62
2022/03/27 02:29:06;;;;;;;2.47;1.85;;;;;;;3.33;100.00;100142.63;1648431;86;21040;-63
2022/03/27 02:31:34;;;;;;;3.58;1.82;;;;;;;3.39;100.00;100136.58;1648835;87;21109;-63
2022/03/27 02:34:01;;;;;;;5.20;1.90;;;;;;;3.42;100.00;100137.77;1648870;87;21001;-62
2022/03/27 02:36:29;;;;;;;5.65;2.10;;;;;;;3.48;100.00;100133.00;1648824;87;21009;-62
2022/03/27 02:38:56;;;;;;;4.47;2.08;;;;;;;3.44;100.00;100142.83;1649032;87;21080;-62
2022/03/27 02:41:23;;;;;;;3.65;1.90;;;;;;;3.40;100.00;100149.69;1648807;87;21036;-62
2022/03/27 02:43:51;;;;;;;3.65;1.67;;;;;;;3.45;100.00;100142.81;1707740;84;21506;-62
2022/03/27 02:46:20;;;;;;;3.45;1.85;;;;;;;3.42;100.00;100141.59;1683016;85;21494;-62
2022/03/27 02:48:48;;;;;;;5.60;2.00;;;;;;;3.45;100.00;100144.49;1713225;83;21008;-62
2022/03/27 02:51:15;;;;;;;4.85;1.82;;;;;;;3.46;100.00;100139.38;1714296;83;21187;-62
2022/03/27 02:53:42;;;;;;;5.75;2.12;;;;;;;3.46;100.00;100128.37;1714759;83;21017;-62
2022/03/27 02:56:10;;;;;;;6.67;3.27;;;;;;;3.49;100.00;100135.92;1698663;84;21027;-62
2022/03/27 02:58:38;;;;;;;9.18;3.20;;;;;;;3.47;100.00;100134.71;1704088;84;21031;-62
2022/03/27 03:01:06;;;;;;;6.50;3.25;;;;;;;3.44;100.00;100136.03;1702642;84;21042;-62
2022/03/27 03:03:34;;;;;;;10.55;4.70;;;;;;;3.35;100.00;100139.61;1700722;84;21476;-62
2022/03/27 03:06:06;;;;;;;17.05;6.50;;;;;;;3.36;100.00;100147.62;1700505;84;20991;-62
2022/03/27 03:08:37;;;;;;;18.62;7.53;;;;;;;3.36;100.00;100148.91;1701608;84;21574;-62
2022/03/27 03:11:07;;;;;;;17.07;7.10;;;;;;;3.37;100.00;100148.05;1702948;84;20995;-62
2022/03/27 03:13:35;;;;;;;19.20;6.87;;;;;;;3.43;100.00;100152.59;1700343;84;21026;-62
2022/03/27 03:16:06;;;;;;;14.07;5.45;;;;;;;3.39;100.00;100157.77;1704421;84;21540;-62
2022/03/27 03:18:35;;;;;;;11.10;4.20;;;;;;;3.46;100.00;100176.72;1701004;84;21000;-62
2022/03/27 03:21:03;;;;;;;9.00;3.52;;;;;;;3.51;100.00;100178.75;1700448;84;21027;-62
2022/03/27 03:23:32;;;;;;;15.05;3.90;;;;;;;3.69;100.00;100187.69;1701959;84;21015;-62
2022/03/27 03:26:00;;;;;;;10.63;4.17;;;;;;;3.83;100.00;100202.23;1699543;84;20992;-62
2022/03/27 03:28:28;;;;;;;14.65;4.42;;;;;;;3.92;100.00;100200.78;1702745;84;21451;-62
2022/03/27 03:30:55;;;;;;;13.15;6.08;;;;;;;3.94;100.00;100201.59;1699830;84;21027;-62
2022/03/27 03:33:26;;;;;;;18.07;7.12;;;;;;;3.89;100.00;100205.92;1698741;84;21010;-62
2022/03/27 03:35:54;;;;;;;17.67;6.62;;;;;;;3.99;100.00;100210.39;1702153;84;21011;-61
2022/03/27 03:38:22;;;;;;;19.55;6.72;;;;;;;3.99;100.00;100233.31;1703153;84;21022;-61
2022/03/27 03:40:51;;;;;;;21.37;6.35;;;;;;;4.05;100.00;100229.80;1704235;84;21039;-62
2022/03/27 03:43:20;;;;;;;12.28;5.92;;;;;;;4.00;100.00;100237.55;1692961;84;21036;-62
2022/03/27 03:45:48;;;;;;;14.18;5.30;;;;;;;4.00;100.00;100242.20;1689285;85;21520;-61
2022/03/27 03:48:16;;;;;;;11.00;4.80;;;;;;;3.95;100.00;100239.34;1689697;85;21040;-61
2022/03/27 03:50:44;;;;;;;11.00;4.53;;;;;;;3.92;100.00;100256.80;1689971;85;21052;-61
2022/03/27 03:53:11;;;;;;;11.38;3.92;;;;;;;3.88;100.00;100253.92;1692388;84;21492;-61
2022/03/27 03:55:39;;;;;;;7.97;2.90;;;;;;;3.85;100.00;100251.86;1691803;84;21039;-61
2022/03/27 03:58:08;;;;;;;8.63;3.27;;;;;;;3.80;100.00;100252.80;1694734;84;21012;-61
2022/03/27 04:00:36;;;;;;;7.55;2.40;;;;;;;3.71;100.00;100260.63;1689617;85;21500;-61
2022/03/27 04:03:04;;;;;;;5.72;1.87;;;;;;;3.67;100.00;100253.93;1689000;85;21051;-62
2022/03/27 04:05:32;;;;;;;4.15;1.67;;;;;;;3.68;100.00;100259.41;1689958;85;21059;-61
2022/03/27 04:08:03;;;;;;;11.08;2.12;;;;;;;3.65;100.00;100262.44;1694711;84;21629;-62
2022/03/27 04:10:30;;;;;;;4.97;1.85;;;;;;;3.61;100.00;100261.69;1693633;84;21043;-62
2022/03/27 04:12:59;;;;;;;3.62;1.65;;;;;;;3.57;100.00;100265.98;1691940;84;21011;-60
2022/03/27 04:15:27;;;;;;;6.33;1.72;;;;;;;3.59;100.00;100271.89;1694895;84;21094;-61
2022/03/27 04:18:00;;;;;;;6.17;1.42;;;;;;;3.59;100.00;100271.89;1691634;84;21504;-61
2022/03/27 04:20:28;;;;;;;3.92;1.40;;;;;;;3.57;100.00;100272.35;1691236;84;21026;-62
2022/03/27 04:22:57;;;;;;;5.15;1.50;;;;;;;3.63;100.00;100280.31;1689703;84;21004;-61
2022/03/27 04:25:25;;;;;;;9.10;1.80;;;;;;;3.64;100.00;100278.16;1689979;85;20976;-62
2022/03/27 04:27:52;;;;;;;4.55;1.57;;;;;;;3.62;100.00;100283.70;1690149;85;21520;-62
2022/03/27 04:30:20;;;;;;;2.08;1.40;;;;;;;3.70;100.00;100284.84;1689502;84;21055;-62
2022/03/27 04:32:49;;;;;;;5.22;1.72;;;;;;;3.73;100.00;100284.77;1694848;84;21026;-62
2022/03/27 04:35:16;;;;;;;4.62;1.50;;;;;;;3.72;100.00;100289.47;1689424;85;21526;-61
2022/03/27 04:37:47;;;;;;;3.12;1.40;;;;;;;3.84;100.00;100290.94;1693859;84;21027;-61
2022/03/27 04:40:15;;;;;;;6.17;1.80;;;;;;;3.86;100.00;100288.76;1700479;84;21043;-61
2022/03/27 04:42:46;;;;;;;3.77;1.50;;;;;;;3.91;100.00;100297.13;1678892;85;21068;-61
2022/03/27 04:45:13;;;;;;;3.17;1.25;;;;;;;3.91;100.00;100297.57;1669884;86;21520;-61
2022/03/27 04:47:42;;;;;;;4.62;1.70;;;;;;;3.97;100.00;100297.03;1702389;84;21031;-61
2022/03/27 04:50:11;;;;;;;4.78;1.37;;;;;;;4.01;100.00;100298.66;1705204;84;20984;-61
2022/03/27 04:52:38;;;;;;;6.33;1.50;;;;;;;4.04;100.00;100307.93;1702063;84;20993;-61
2022/03/27 04:55:07;;;;;;;4.95;1.25;;;;;;;4.00;100.00;100307.15;1702144;84;21016;-61
2022/03/27 04:57:38;;;;;;;3.20;1.15;;;;;;;4.01;100.00;100333.45;1702570;84;21048;-62
2022/03/27 05:00:15;;;;;;;4.47;1.27;;;;;;;4.07;100.00;100326.13;1700150;84;21049;-61
2022/03/27 05:02:43;;;;;;;3.70;1.20;;;;;;;4.11;100.00;100315.00;1701896;84;21017;-61
2022/03/27 05:05:12;;;;;;;3.40;1.27;;;;;;;4.12;100.00;100322.63;1703402;84;21002;-61
2022/03/27 05:07:42;;;;;;;3.83;1.25;;;;;;;4.08;100.00;100322.28;1703497;84;22399;-61
2022/03/27 05:10:13;;;;;;;2.08;1.20;;;;;;;4.12;100.00;100331.98;1660007;86;21017;-62
2022/03/27 05:12:40;;;;;;;4.62;1.35;;;;;;;4.17;100.00;100314.43;1659128;85;21100;-62
2022/03/27 05:15:10;;;;;;;5.42;1.17;;;;;;;4.25;100.00;100321.92;1696293;84;20997;-61
2022/03/27 05:17:57;;;;;;;3.45;1.22;;;;;;;4.31;100.00;100312.88;1691847;84;21012;-62
2022/03/27 05:20:30;;;;;;;5.72;1.42;;;;;;;4.34;100.00;100320.47;1692331;84;21070;-62
2022/03/27 05:23:02;;;;;;;6.00;1.20;;;;;;;4.40;100.00;100326.70;1694652;84;21296;-61
2022/03/27 05:25:29;;;;;;;2.90;1.10;;;;;;;4.43;99.79;100341.08;1699252;84;20999;-62
2022/03/27 05:27:58;;;;;;;4.60;1.10;;;;;;;4.53;98.07;100336.63;1699514;84;21011;-61
2022/03/27 05:30:27;;;;;;;3.17;1.00;;;;;;;4.56;97.72;100344.19;1699810;84;21523;-62
2022/03/27 05:32:55;;;;;;;1.37;0.80;;;;;;;4.63;94.86;100336.00;1698740;84;21553;-63
2022/03/27 05:35:23;;;;;;;4.83;1.00;;;;;;;4.72;94.67;100344.70;1655185;84;21072;-63
2022/03/27 05:37:52;;;;;;;1.87;1.12;;;;;;;4.77;94.20;100348.83;1697755;83;20995;-63
2022/03/27 05:40:22;;;;;;;2.87;1.12;;;;;;;4.79;90.84;100352.63;1658198;86;21130;-62
2022/03/27 05:42:51;;;;;;;2.83;1.02;;;;;;;4.87;90.83;100345.64;1688618;85;21066;-62
2022/03/27 05:45:19;;;;;;;4.75;1.20;;;;;;;4.98;89.87;100355.13;1711108;83;21015;-62
2022/03/27 05:47:47;;;;;;;3.77;1.30;;;;;;;5.13;90.54;100350.54;1717444;83;21082;-62
2022/03/27 05:50:18;;;;;;;2.95;1.00;;;;;;;5.30;86.88;100353.53;1717539;83;20996;-62
2022/03/27 05:52:46;;;;;;;5.10;0.93;;;;;;;5.30;86.88;100353.53;1717352;83;21071;-62
2022/03/27 05:55:15;;;;;;;2.92;1.20;;;;;;;5.35;85.03;100365.75;1717412;83;21091;-62
2022/03/27 05:57:42;;;;;;;4.90;1.30;;;;;;;5.50;82.75;100386.67;1717278;83;21063;-62
2022/03/27 06:00:20;;;;;;;1.92;1.02;;;;;;;5.50;82.75;100386.67;1717351;83;21012;-62
2022/03/27 06:02:44;;;;;;;3.50;1.20;;;;;;;5.47;81.51;100385.00;1717677;83;20996;-62
2022/03/27 06:05:11;;;;;;;3.17;1.00;;;;;;;5.65;81.82;100381.59;1717487;83;21007;-62
2022/03/27 06:07:47;;;;;;;5.78;1.35;;;;;;;5.56;79.43;100394.17;1717478;83;21047;-62
2022/03/27 06:10:19;;;;;;;6.75;1.30;;;;;;;5.66;78.96;100393.06;1716733;83;21000;-63
2022/03/27 06:12:47;;;;;;;4.12;1.30;;;;;;;5.67;78.70;100388.33;1717490;83;21024;-63
2022/03/27 06:15:15;;;;;;;5.33;1.20;;;;;;;5.70;77.86;100420.64;1717434;83;21528;-62
2022/03/27 06:17:48;;;;;;;4.95;1.20;;;;;;;5.75;78.28;100405.58;1711295;83;22406;-63
2022/03/27 06:20:19;;;;;;;6.37;1.40;;;;;;;5.92;79.19;100410.68;1681124;85;21037;-62
2022/03/27 06:22:48;;;;;;;5.67;1.15;;;;;;;5.91;78.21;100406.47;1667540;86;21580;-63
2022/03/27 06:25:20;;;;;;;4.65;1.37;;;;;;;5.71;77.35;100415.92;1667407;86;21603;-62
2022/03/27 06:27:49;;;;;;;6.08;1.30;;;;;;;5.76;78.52;100416.20;1667009;86;21076;-62
2022/03/27 06:30:19;;;;;;;4.67;1.00;;;;;;;5.80;77.45;100420.80;1667117;85;21088;-63
2022/03/27 06:32:51;;;;;;;3.40;1.20;;;;;;;5.59;76.99;100440.87;1674803;84;21040;-63
2022/03/27 06:35:20;;;;;;;5.35;1.00;;;;;;;5.38;77.35;100433.30;1698545;84;21040;-63
2022/03/27 06:37:49;;;;;;;3.22;1.17;;;;;;;5.39;77.74;100444.34;1673134;84;21126;-63
2022/03/27 06:40:17;;;;;;;3.35;1.00;;;;;;;5.68;78.16;100437.27;1698450;84;21044;-63
2022/03/27 06:42:46;;;;;;;3.40;1.05;;;;;;;5.76;77.04;100434.09;1698374;84;21100;-63
2022/03/27 06:45:15;;;;;;;2.17;1.25;;;;;;;5.68;76.63;100465.78;1715314;84;21519;-62
2022/03/27 06:47:44;;;;;;;3.30;1.30;;;;;;;5.50;76.61;100446.67;1715188;83;21524;-63
2022/03/27 06:50:13;;;;;;;3.87;1.10;;;;;;;5.56;77.83;100469.05;1714889;83;21075;-63
2022/03/27 06:52:44;;;;;;;2.67;1.00;;;;;;;5.47;77.57;100455.22;1715260;83;21106;-62
2022/03/27 06:55:12;;;;;;;2.60;1.20;;;;;;;5.66;78.16;100456.91;1715166;84;21059;-61
2022/03/27 06:57:41;;;;;;;3.25;1.12;;;;;;;5.52;77.68;100471.27;1715164;84;22217;-62
2022/03/27 07:03:06;;;;;;;3.95;1.00;;;;;;;5.36;75.13;100467.41;1715164;83;21039;-61
2022/03/27 07:05:42;;;;;;;2.12;0.93;;;;;;;5.32;76.74;100465.80;1714946;84;21087;-62
2022/03/27 07:08:16;;;;;;;4.72;1.37;;;;;;;5.41;76.46;100463.87;1715237;83;21027;-61
2022/03/27 07:10:47;;;;;;;2.77;1.10;;;;;;;5.53;77.67;100469.11;1715060;83;21067;-63
2022/03/27 07:13:17;;;;;;;3.15;1.10;;;;;;;5.62;77.05;100468.90;1715280;83;21075;-62
2022/03/27 07:15:46;;;;;;;4.62;1.40;;;;;;;5.63;76.91;100469.73;1715266;83;21544;-63
2022/03/27 07:18:20;;;;;;;2.80;1.35;;;;;;;5.60;76.00;100460.89;1715203;84;21547;-62
2022/03/27 07:20:48;;;;;;;2.72;1.07;;;;;;;5.60;77.17;100466.83;1714978;83;21071;-62
2022/03/27 07:23:19;;;;;;;2.60;1.20;;;;;;;5.46;77.05;100481.64;1715248;84;21043;-63
2022/03/27 07:25:49;;;;;;;4.50;1.10;;;;;;;5.34;77.86;100474.27;1715106;84;21062;-63
2022/03/27 07:28:18;;;;;;;2.58;1.02;;;;;;;5.16;79.03;100484.45;1715243;84;21560;-62
2022/03/27 07:30:46;;;;;;;3.22;1.17;;;;;;;4.91;81.11;100490.52;1715272;84;21019;-62
2022/03/27 07:33:16;;;;;;;3.65;1.10;;;;;;;4.50;86.80;100512.56;1714911;84;21027;-63
2022/03/27 07:35:44;;;;;;;2.33;1.00;;;;;;;4.18;90.66;100513.57;1715170;84;21012;-63
2022/03/27 07:38:13;;;;;;;1.45;0.93;;;;;;;4.33;91.66;100516.71;1714786;84;21051;-63
2022/03/27 07:40:41;;;;;;;2.67;1.20;;;;;;;4.35;89.03;100520.07;1715054;83;21059;-62
2022/03/27 07:43:10;;;;;;;3.20;1.10;;;;;;;4.29;87.59;100526.55;1710787;84;21064;-62
2022/03/27 07:45:37;;;;;;;2.02;1.20;;;;;;;4.29;87.59;100526.55;1701907;84;20991;-62
2022/03/27 07:48:05;;;;;;;1.30;1.10;;;;;;;4.38;88.23;100528.51;1702363;84;21015;-63
2022/03/27 07:50:34;;;;;;;1.47;0.82;;;;;;;4.14;87.42;100536.14;1702818;84;21613;-63
2022/03/27 07:53:02;;;;;;;2.02;1.02;;;;;;;4.28;87.08;100540.14;1702712;84;21484;-62
2022/03/27 07:55:32;;;;;;;1.20;0.90;;;;;;;4.07;86.60;100540.92;1703071;84;21046;-63
2022/03/27 07:58:00;;;;;;;1.60;0.98;;;;;;;4.35;86.71;100541.29;1702811;84;21531;-63
2022/03/27 08:00:29;;;;;;;2.35;1.10;;;;;;;4.81;86.95;100541.70;1702925;83;21078;-63
2022/03/27 08:02:57;;;;;;;1.47;1.15;;;;;;;4.86;86.47;100533.95;1703218;84;21011;-62
2022/03/27 08:05:25;;;;;;;2.52;1.20;;;;;;;4.92;87.03;100530.00;1702638;84;21023;-62
2022/03/27 08:07:52;;;;;;;2.50;1.00;;;;;;;5.16;86.09;100527.38;1703235;84;21039;-61
2022/03/27 08:10:21;;;;;;;1.67;1.00;;;;;;;5.16;80.48;100513.34;1703010;84;21039;-62
2022/03/27 08:12:50;;;;;;;1.90;1.27;;;;;;;5.28;77.82;100558.63;1689381;84;21027;-62
2022/03/27 08:15:20;;;;;;;3.60;1.27;;;;;;;5.05;77.65;100521.69;1702565;84;21097;-63
2022/03/27 08:17:53;;;;;;;2.00;1.27;;;;;;;5.46;78.89;100533.14;1702389;84;21015;-62
2022/03/27 08:20:21;;;;;;;3.50;1.25;;;;;;;5.77;77.11;100531.53;1703425;84;21011;-62
2022/03/27 08:22:49;;;;;;;1.10;0.90;;;;;;;6.02;77.73;100533.52;1703340;84;20999;-63
2022/03/27 08:26:55;;;;;;;1.35;1.00;;;;;;;5.58;76.44;100534.97;1703391;84;21090;-63
2022/03/27 08:27:46;;;;;;;3.35;0.90;;;;;;;5.17;76.12;100550.77;1704481;84;21652;-63
2022/03/27 08:30:13;;;;;;;1.17;1.07;;;;;;;4.91;76.74;100553.84;1703365;84;21004;-62
2022/03/27 08:32:41;;;;;;;2.02;1.10;;;;;;;4.72;77.85;100562.27;1703054;84;21078;-62
2022/03/27 08:35:09;;;;;;;1.72;1.07;;;;;;;4.52;76.14;100572.87;1703158;84;21055;-63
2022/03/27 08:37:37;;;;;;;4.60;1.17;;;;;;;4.55;76.59;100563.88;1703390;84;21515;-62
2022/03/27 08:40:06;;;;;;;5.28;1.20;;;;;;;4.61;75.71;100580.33;1703090;84;21543;-63
2022/03/27 08:42:35;;;;;;;1.57;1.20;;;;;;;4.72;76.60;100572.91;1703156;84;21090;-62
2022/03/27 08:45:02;;;;;;;1.50;1.20;;;;;;;4.42;78.83;100609.59;1711804;84;21098;-63
2022/03/27 08:47:32;;;;;;;2.92;1.07;;;;;;;4.42;78.83;100609.59;1714274;84;21079;-62
2022/03/27 08:50:34;;;;;;;1.30;1.00;;;;;;;4.28;80.59;100613.63;1714354;84;21055;-63
2022/03/27 08:53:06;;;;;;;2.58;1.55;;;;;;;4.38;81.50;100546.79;1712940;84;21121;-63
2022/03/27 08:55:46;;;;;;;1.45;1.07;;;;;;;4.63;81.36;100587.96;1713627;84;21154;-62
2022/03/27 08:58:14;;;;;;;4.85;2.92;;;;;;;4.73;78.96;100597.12;1694947;84;21109;-62
2022/03/27 09:00:44;;;;;;;1.75;1.30;;;;;;;4.91;77.26;100587.01;1713663;84;21481;-62
2022/03/27 09:03:12;;;;;;;2.67;1.30;;;;;;;5.06;73.58;100590.13;1713435;84;21086;-62
2022/03/27 09:05:40;;;;;;;2.17;1.70;;;;;;;5.06;73.58;100590.13;1713247;84;21551;-62
2022/03/27 09:08:10;;;;;;;1.92;1.40;;;;;;;5.20;72.13;100604.27;1713411;84;21023;-62
2022/03/27 09:10:40;;;;;;;1.10;1.00;;;;;;;5.32;68.86;100589.16;1713632;84;21067;-62
2022/03/27 09:13:14;;;;;;;1.60;1.10;;;;;;;5.45;67.23;100591.44;1713633;84;21074;-62
2022/03/27 09:15:45;;;;;;;;;;;;;;;5.56;65.30;100589.51;1716330;84;21532;-62
2022/03/27 09:18:15;;;;;;;1.60;0.98;;;;;;;5.74;64.07;100604.42;1708760;84;20135;-64
2022/03/27 09:20:48;;;;;;;2.50;1.02;;;;;;;5.41;62.49;100606.84;1713382;82;21051;-62
2022/03/27 09:23:26;;;;;;;5.83;1.10;;;;;;;5.49;62.88;100605.38;1725255;83;21060;-62
2022/03/27 09:26:13;;;;;;;5.17;1.60;;;;;;;5.19;57.93;100638.75;1711578;83;21523;-63
2022/03/27 09:28:50;;;;;;;4.37;1.25;;;;;;;5.00;58.17;100614.88;1701685;84;21079;-62
2022/03/27 09:31:25;;;;;;;3.95;1.52;;;;;;;5.17;57.77;100640.50;1700527;84;21075;-63
2022/03/27 09:33:57;;;;;;;9.35;1.32;;;;;;;5.33;58.50;100621.48;1702024;84;21055;-63
2022/03/27 09:36:29;;;;;;;4.67;1.20;;;;;;;5.49;57.43;100635.18;1698332;84;21056;-63
2022/03/27 09:39:17;;;;;;;7.40;0.90;;;;;;;5.06;56.85;100627.95;1666702;86;21462;-62
2022/03/27 09:41:54;;;;;;;7.20;1.07;;;;;;;4.77;57.21;100635.72;1666653;86;21063;-63
2022/03/27 09:44:34;;;;;;;4.62;1.00;;;;;;;4.62;56.17;100637.26;1655799;85;21075;-63
2022/03/27 09:47:05;;;;;;;3.17;1.00;;;;;;;4.90;54.14;100656.73;1697924;84;21005;-63
2022/03/27 09:49:41;;;;;;;4.78;1.00;;;;;;;5.11;53.66;100635.52;1695360;84;21007;-62
2022/03/27 09:52:15;;;;;;;5.10;1.37;;;;;;;5.41;52.64;100648.09;1691098;84;21086;-63
2022/03/27 09:54:55;;;;;;;2.35;1.00;;;;;;;5.40;52.30;100634.50;1695214;84;21464;-62
2022/03/27 09:57:40;;;;;;;2.37;1.07;;;;;;;5.93;51.85;100630.82;1695093;84;21020;-63
2022/03/27 10:00:18;;;;;;;5.47;1.00;;;;;;;6.30;51.91;100642.76;1698670;84;21051;-62
2022/03/27 10:02:49;;;;;;;1.60;1.00;;;;;;;6.30;50.93;100652.53;1694476;84;21593;-62
2022/03/27 10:05:21;;;;;;;1.82;1.10;;;;;;;6.52;51.36;100647.73;1705481;83;21086;-62
2022/03/27 10:07:56;;;;;;;6.03;1.10;;;;;;;5.81;51.13;100663.42;1705445;83;21010;-62
2022/03/27 10:10:26;;;;;;;4.05;1.20;;;;;;;5.55;50.61;100661.86;1711469;84;21062;-62
2022/03/27 10:12:58;;;;;;;3.40;1.10;;;;;;;5.40;51.20;100666.41;1708149;83;21066;-63
2022/03/27 10:15:30;;;;;;;5.12;1.20;;;;;;;5.26;51.25;100656.91;1713217;83;21005;-62
2022/03/27 10:18:12;;;;;;;7.85;1.60;;;;;;;5.54;51.98;100670.41;1693413;84;21047;-62
2022/03/27 10:20:41;;;;;;;7.95;1.60;;;;;;;5.48;52.35;100671.81;1700566;84;21044;-62
2022/03/27 10:23:14;;;;;;;6.83;1.90;;;;;;;5.39;52.65;100669.85;1716002;83;21100;-62
2022/03/27 10:25:55;;;;;;;11.63;1.65;;;;;;;5.68;53.04;100677.34;1712447;83;21114;-62
2022/03/27 10:28:23;;;;;;;7.97;2.87;;;;;;;5.87;52.78;100672.67;1716134;83;21518;-62
2022/03/27 10:30:52;;;;;;;11.45;1.90;;;;;;;5.94;52.04;100682.30;1716241;83;21069;-62
2022/03/27 10:33:24;;;;;;;11.90;1.90;;;;;;;5.85;51.92;100686.36;1716156;83;21061;-62
2022/03/27 10:36:17;;;;;;;8.03;2.00;;;;;;;5.50;52.00;100682.39;1703882;83;21051;-62
2022/03/27 10:39:08;;;;;;;7.83;1.70;;;;;;;5.42;51.88;100707.23;1681382;84;22245;-62
2022/03/27 10:41:47;;;;;;;4.28;1.60;;;;;;;5.25;51.28;100706.70;1714408;84;21580;-62
2022/03/27 10:44:38;;;;;;;5.80;1.40;;;;;;;5.30;51.24;100708.75;1677687;85;21833;-62
2022/03/27 10:47:21;;;;;;;9.53;1.30;;;;;;;5.24;51.01;100722.47;1700611;84;21056;-62
2022/03/27 10:50:08;;;;;;;5.47;1.10;;;;;;;5.17;50.79;100696.64;1700314;84;21549;-62
2022/03/27 10:52:54;;;;;;;6.50;1.97;;;;;;;5.33;50.69;100730.38;1701331;83;21520;-61
2022/03/27 10:55:22;;;;;;;4.40;1.30;;;;;;;5.48;51.22;100715.22;1694915;84;21544;-62
2022/03/27 10:57:50;;;;;;;8.45;1.87;;;;;;;5.58;52.46;100712.44;1719080;83;21053;-61
2022/03/27 11:00:38;;;;;;;7.67;1.32;;;;;;;5.95;50.91;100724.47;1718704;83;21066;-61
2022/03/27 11:03:06;;;;;;;3.05;1.20;;;;;;;5.73;50.50;100715.55;1700286;83;21030;-61
2022/03/27 11:05:41;;;;;;;4.33;1.20;;;;;;;5.62;50.33;100726.83;1710063;83;21032;-61
2022/03/27 11:08:25;;;;;;;4.70;1.10;;;;;;;5.27;50.52;100726.25;1705783;83;21633;-61
2022/03/27 11:10:59;;;;;;;4.97;1.22;;;;;;;5.47;50.90;100717.35;1704769;83;21507;-62
2022/03/27 11:13:31;;;;;;;12.40;2.67;;;;;;;5.63;51.68;100744.27;1719080;83;21507;-62
2022/03/27 11:16:15;;;;;;;12.37;1.62;;;;;;;5.79;51.92;100710.31;1719086;83;21038;-62
2022/03/27 11:18:45;;;;;;;;;;;;;;;5.73;51.92;100714.27;1720347;83;21039;-62
2022/03/27 11:21:30;;;;;;;8.68;1.22;;;;;;;5.46;52.82;100729.28;1702721;83;20117;-62
2022/03/27 11:24:08;;;;;;;4.50;1.32;;;;;;;5.15;51.77;100729.00;1671280;85;21175;-62
2022/03/27 11:26:36;;;;;;;8.38;1.67;;;;;;;5.54;52.43;100738.08;1708469;83;21499;-62
2022/03/27 11:29:22;;;;;;;6.78;1.40;;;;;;;5.51;52.81;100729.19;1718625;82;21050;-63
2022/03/27 11:32:10;;;;;;;6.37;1.70;;;;;;;5.42;52.98;100745.09;1717719;83;21129;-62
2022/03/27 11:34:39;;;;;;;4.35;1.22;;;;;;;5.03;54.66;100746.67;1718937;83;21551;-62
2022/03/27 11:37:27;;;;;;;5.50;1.32;;;;;;;4.88;55.75;100745.64;1708799;83;21037;-62
2022/03/27 11:39:49;;;;;;;5.75;1.22;;;;;;;4.91;55.49;100745.16;1688218;84;21086;-61
2022/03/27 11:42:32;;;;;;;10.98;1.50;;;;;;;5.13;54.91;100760.08;1701969;84;21083;-62
2022/03/27 11:45:19;;;;;;;11.00;1.40;;;;;;;5.30;53.66;100733.00;1690596;84;21016;-61
2022/03/27 11:47:53;;;;;;;3.50;1.25;;;;;;;5.73;53.81;100747.03;1685712;85;21486;-62
2022/03/27 11:50:28;;;;;;;7.62;1.67;;;;;;;5.81;53.55;100780.93;1690070;84;21088;-61